createdAt,value
2018-06-02T00:00:11.828Z,82.72
2018-06-02T00:02:40.076Z,83.08
2018-06-02T00:05:08.387Z,82.98
2018-06-02T00:07:36.589Z,82.98
2018-06-02T00:10:04.832Z,83.26
2018-06-02T00:12:33.092Z,83.28
2018-06-02T00:15:02.105Z,83.28
2018-06-02T00:17:30.358Z,83.60
2018-06-02T00:19:59.365Z,83.00
2018-06-02T00:22:27.620Z,82.75
2018-06-02T00:24:56.646Z,83.15
2018-06-02T00:27:24.889Z,82.65
2018-06-02T00:29:53.145Z,83.11
2018-06-02T00:32:21.400Z,83.74
2018-06-02T00:34:49.649Z,84.18
2018-06-02T00:37:17.911Z,84.38
2018-06-02T00:39:46.926Z,83.97
2018-06-02T00:42:15.613Z,84.90
2018-06-02T00:44:43.870Z,83.57
2018-06-02T00:47:12.889Z,84.27
2018-06-02T00:49:41.132Z,85.06
2018-06-02T00:52:10.165Z,84.98
2018-06-02T00:54:56.152Z,84.32
2018-06-02T00:57:24.405Z,84.61
2018-06-02T00:59:52.647Z,83.91
2018-06-02T01:02:20.900Z,85.00
2018-06-02T01:04:49.150Z,85.89
2018-06-02T01:07:17.405Z,85.91
2018-06-02T01:09:45.655Z,85.57
2018-06-02T01:12:14.689Z,85.73
2018-06-02T01:14:42.940Z,86.12
2018-06-02T01:17:11.189Z,86.17
2018-06-02T01:19:39.474Z,86.18
2018-06-02T01:22:08.481Z,86.91
2018-06-02T01:24:37.504Z,86.95
2018-06-02T01:27:05.749Z,87.72
2018-06-02T01:29:34.005Z,87.65
2018-06-02T01:32:02.265Z,87.76
2018-06-02T01:34:30.516Z,87.57
2018-06-02T01:36:58.764Z,87.13
2018-06-02T01:39:27.016Z,87.84
2018-06-02T01:41:56.030Z,87.74
2018-06-02T01:44:24.284Z,87.77
2018-06-02T01:46:53.304Z,87.82
2018-06-02T01:49:21.563Z,88.08
2018-06-02T01:51:50.572Z,88.18
2018-06-02T01:54:18.839Z,87.90
2018-06-02T01:56:47.849Z,88.19
2018-06-02T01:59:16.098Z,87.16
2018-06-02T02:01:45.121Z,88.16
2018-06-02T02:04:13.376Z,87.97
2018-06-02T02:06:41.632Z,88.14
2018-06-02T02:09:10.649Z,88.53
2018-06-02T02:11:38.933Z,88.80
2018-06-02T02:14:07.174Z,88.08
2018-06-02T02:16:36.201Z,88.15
2018-06-02T02:19:04.445Z,87.46
2018-06-02T02:21:32.697Z,88.24
2018-06-02T02:24:00.956Z,88.44
2018-06-02T02:26:29.213Z,89.20
2018-06-02T02:28:57.457Z,88.83
2018-06-02T02:31:26.478Z,88.20
2018-06-02T02:33:54.724Z,88.91
2018-06-02T02:36:23.748Z,88.75
2018-06-02T02:38:51.997Z,89.48
2018-06-02T02:41:21.023Z,89.43
2018-06-02T02:43:49.269Z,88.83
2018-06-02T02:46:17.534Z,88.47
2018-06-02T02:48:46.544Z,88.63
2018-06-02T02:51:14.804Z,89.44
2018-06-02T02:53:43.822Z,88.96
2018-06-02T02:56:12.745Z,89.61
2018-06-02T02:58:40.997Z,89.64
2018-06-02T03:01:09.245Z,88.87
2018-06-02T03:03:38.265Z,89.26
2018-06-02T03:06:06.518Z,88.47
2018-06-02T03:08:34.781Z,88.60
2018-06-02T03:11:03.797Z,89.47
2018-06-02T03:13:32.044Z,88.40
2018-06-02T03:16:01.061Z,88.88
2018-06-02T03:18:30.108Z,89.01
2018-06-02T03:20:58.356Z,88.88
2018-06-02T03:23:26.614Z,87.64
2018-06-02T03:25:54.859Z,87.87
2018-06-02T03:28:23.884Z,88.04
2018-06-02T03:30:52.126Z,88.63
2018-06-02T03:33:21.140Z,88.85
2018-06-02T03:35:49.388Z,89.25
2018-06-02T03:38:17.654Z,89.04
2018-06-02T03:40:47.402Z,89.51
2018-06-02T03:43:15.657Z,89.12
2018-06-02T03:45:43.900Z,90.14
2018-06-02T03:48:12.157Z,89.47
2018-06-02T03:50:40.409Z,89.00
2018-06-02T03:53:08.709Z,88.49
2018-06-02T03:55:37.691Z,88.13
2018-06-02T03:58:05.944Z,87.80
2018-06-02T04:00:35.062Z,87.99
2018-06-02T04:03:03.305Z,87.67
2018-06-02T04:05:32.330Z,88.24
2018-06-02T04:08:00.585Z,87.96
2018-06-02T04:10:28.858Z,87.50
2018-06-02T04:12:57.857Z,87.24
2018-06-02T04:15:26.109Z,87.08
2018-06-02T04:17:55.136Z,86.99
2018-06-02T04:20:25.044Z,86.48
2018-06-02T04:22:53.289Z,86.37
2018-06-02T04:25:21.546Z,86.90
2018-06-02T04:27:49.794Z,86.92
2018-06-02T04:30:18.048Z,86.24
2018-06-02T04:32:46.310Z,85.95
2018-06-02T04:35:15.826Z,85.72
2018-06-02T04:37:44.072Z,86.23
2018-06-02T04:40:13.091Z,87.32
2018-06-02T04:42:41.345Z,86.42
2018-06-02T04:45:10.370Z,85.62
2018-06-02T04:47:38.617Z,86.00
2018-06-02T04:50:07.629Z,85.70
2018-06-02T04:52:35.883Z,85.07
2018-06-02T04:55:04.900Z,85.42
2018-06-02T04:57:33.154Z,84.62
2018-06-02T05:00:02.170Z,84.73
2018-06-02T05:02:30.421Z,85.25
2018-06-02T05:04:59.429Z,85.28
2018-06-02T05:07:27.695Z,84.63
2018-06-02T05:09:56.705Z,85.10
2018-06-02T05:12:24.961Z,84.60
2018-06-02T05:14:53.972Z,84.56
2018-06-02T05:17:22.253Z,84.00
2018-06-02T05:19:51.177Z,83.97
2018-06-02T05:22:19.420Z,83.90
2018-06-02T05:24:47.675Z,84.62
2018-06-02T05:27:16.701Z,84.54
2018-06-02T05:29:44.960Z,84.68
2018-06-02T05:32:13.200Z,83.64
2018-06-02T05:34:41.456Z,82.90
2018-06-02T05:37:09.705Z,82.94
2018-06-02T05:39:37.957Z,82.03
2018-06-02T05:42:06.213Z,82.45
2018-06-02T05:44:34.469Z,81.46
2018-06-02T05:47:02.717Z,82.56
2018-06-02T05:49:30.974Z,81.57
2018-06-02T05:51:59.216Z,82.09
2018-06-02T05:54:28.242Z,81.50
2018-06-02T05:56:56.485Z,80.94
2018-06-02T05:59:25.508Z,80.48
2018-06-02T06:01:53.765Z,81.10
2018-06-02T06:04:22.789Z,79.73
2018-06-02T06:06:51.038Z,80.55
2018-06-02T06:09:19.296Z,79.55
2018-06-02T06:11:48.306Z,79.93
2018-06-02T06:14:16.556Z,79.83
2018-06-02T06:16:44.804Z,79.65
2018-06-02T06:19:14.222Z,79.02
2018-06-02T06:21:42.470Z,79.88
2018-06-02T06:24:10.733Z,79.18
2018-06-02T06:26:38.986Z,79.42
2018-06-02T06:29:07.232Z,78.69
2018-06-02T06:31:35.490Z,79.26
2018-06-02T06:34:03.744Z,77.65
2018-06-02T06:36:31.988Z,77.04
2018-06-02T06:39:00.240Z,77.36
2018-06-02T06:41:28.495Z,78.46
2018-06-02T06:43:56.757Z,79.50
2018-06-02T06:46:25.005Z,79.01
2018-06-02T06:48:53.262Z,78.26
2018-06-02T06:51:21.517Z,76.18
2018-06-02T06:53:49.760Z,75.40
2018-06-02T06:56:18.012Z,76.15
2018-06-02T06:58:46.264Z,77.15
2018-06-02T07:01:15.288Z,76.06
2018-06-02T07:03:43.540Z,74.98
2018-06-02T07:06:11.787Z,74.32
2018-06-02T07:08:40.037Z,73.94
2018-06-02T07:11:08.313Z,74.05
2018-06-02T07:13:36.561Z,72.57
2018-06-02T07:16:04.826Z,73.79
2018-06-02T07:18:33.081Z,72.56
2018-06-02T07:21:02.100Z,72.06
2018-06-02T07:23:30.349Z,72.33
2018-06-02T07:25:59.366Z,72.71
2018-06-02T07:28:27.612Z,73.09
2018-06-02T07:30:56.634Z,72.42
2018-06-02T07:33:24.884Z,72.43
2018-06-02T07:35:53.897Z,72.18
2018-06-02T07:38:22.150Z,71.50
2018-06-02T07:40:51.165Z,70.71
2018-06-02T07:43:19.421Z,70.81
2018-06-02T07:45:48.437Z,69.88
2018-06-02T07:48:16.693Z,69.57
2018-06-02T07:50:45.705Z,68.44
2018-06-02T07:53:13.969Z,68.35
2018-06-02T07:55:42.221Z,69.86
2018-06-02T07:58:11.233Z,68.36
2018-06-02T08:00:39.490Z,66.61
2018-06-02T08:03:07.733Z,66.18
2018-06-02T08:05:35.986Z,67.59
2018-06-02T08:08:04.239Z,67.07
2018-06-02T08:10:32.484Z,67.57
2018-06-02T08:13:00.736Z,66.48
2018-06-02T08:15:29.001Z,65.81
2018-06-02T08:17:57.252Z,65.84
2018-06-02T08:20:25.509Z,65.29
2018-06-02T08:22:54.526Z,64.33
2018-06-02T08:25:22.778Z,64.55
2018-06-02T08:27:51.798Z,63.61
2018-06-02T08:30:20.052Z,63.80
2018-06-02T08:32:48.309Z,63.07
2018-06-02T08:35:17.329Z,62.23
2018-06-02T08:37:45.576Z,61.21
2018-06-02T08:40:14.604Z,62.54
2018-06-02T08:42:42.845Z,62.02
2018-06-02T08:45:11.870Z,63.28
2018-06-02T08:47:40.119Z,62.67
2018-06-02T08:50:09.137Z,60.99
2018-06-02T08:52:37.390Z,59.80
2018-06-02T08:55:06.405Z,60.46
2018-06-02T08:57:34.652Z,60.44
2018-06-02T09:00:03.677Z,59.00
2018-06-02T09:02:31.925Z,60.60
2018-06-02T09:05:00.937Z,62.05
2018-06-02T09:07:29.193Z,60.44
2018-06-02T09:09:58.213Z,59.32
2018-06-02T09:12:26.466Z,57.44
2018-06-02T09:14:55.483Z,58.49
2018-06-02T09:17:23.742Z,60.01
2018-06-02T09:19:51.985Z,59.39
2018-06-02T09:22:20.249Z,58.55
2018-06-02T09:24:48.485Z,56.62
2018-06-02T09:27:16.745Z,55.71
2018-06-02T09:29:45.025Z,56.03
2018-06-02T09:32:13.383Z,57.48
2018-06-02T09:34:41.625Z,57.99
2018-06-02T09:37:09.889Z,57.84
2018-06-02T09:39:38.133Z,55.61
2018-06-02T09:42:06.397Z,54.35
2018-06-02T09:44:35.410Z,55.24
2018-06-02T09:47:03.661Z,57.11
2018-06-02T09:49:32.673Z,58.47
2018-06-02T09:52:00.954Z,55.17
2018-06-02T09:54:29.245Z,53.49
2018-06-02T09:56:57.460Z,54.10
2018-06-02T09:59:25.714Z,55.14
2018-06-02T10:01:53.969Z,56.02
2018-06-02T10:04:22.220Z,55.47
2018-06-02T10:06:50.501Z,54.47
2018-06-02T10:09:18.762Z,55.55
2018-06-02T10:11:47.785Z,56.73
2018-06-02T10:14:16.041Z,56.41
2018-06-02T10:16:44.309Z,55.65
2018-06-02T10:19:12.562Z,56.40
2018-06-02T10:21:41.577Z,56.04
2018-06-02T10:24:10.602Z,57.47
2018-06-02T10:26:38.853Z,55.02
2018-06-02T10:29:07.109Z,55.77
2018-06-02T10:31:36.135Z,55.35
2018-06-02T10:34:04.958Z,55.32
2018-06-02T10:36:33.211Z,55.62
2018-06-02T10:39:01.467Z,54.62
2018-06-02T10:41:29.713Z,56.54
2018-06-02T10:43:58.743Z,57.53
2018-06-02T10:46:27.006Z,55.46
2018-06-02T10:48:55.263Z,55.10
2018-06-02T10:51:24.279Z,54.36
2018-06-02T10:53:52.538Z,54.84
2018-06-02T10:56:21.561Z,56.44
2018-06-02T10:58:49.823Z,56.59
2018-06-02T11:01:18.069Z,57.72
2018-06-02T11:03:46.325Z,56.54
2018-06-02T11:06:14.582Z,52.51
2018-06-02T11:08:42.851Z,53.88
2018-06-02T11:11:11.094Z,48.18
2018-06-02T11:13:39.360Z,49.86
2018-06-02T11:16:08.376Z,53.69
2018-06-02T11:18:36.629Z,53.35
2018-06-02T11:21:05.646Z,54.40
2018-06-02T11:23:34.604Z,55.62
2018-06-02T11:26:03.622Z,56.09
2018-06-02T11:28:31.889Z,55.19
2018-06-02T11:31:00.140Z,56.73
2018-06-02T11:33:28.394Z,56.66
2018-06-02T11:35:56.650Z,55.51
2018-06-02T11:38:24.894Z,54.23
2018-06-02T11:40:53.152Z,53.30
2018-06-02T11:43:22.170Z,50.19
2018-06-02T11:45:50.426Z,51.51
2018-06-02T11:48:19.439Z,50.71
2018-06-02T11:50:47.698Z,51.01
2018-06-02T11:53:17.209Z,51.76
2018-06-02T11:55:45.566Z,49.71
2018-06-02T11:58:13.901Z,48.10
2018-06-02T12:00:42.238Z,47.51
2018-06-02T12:03:10.542Z,44.75
2018-06-02T12:05:38.838Z,44.83
2018-06-02T12:08:07.146Z,44.37
2018-06-02T12:10:36.207Z,46.81
2018-06-02T12:13:04.501Z,47.37
2018-06-02T12:15:32.825Z,47.78
2018-06-02T12:18:01.111Z,45.66
2018-06-02T12:20:29.416Z,46.32
2018-06-02T12:22:58.471Z,48.13
2018-06-02T12:25:26.779Z,46.55
2018-06-02T12:27:55.867Z,47.46
2018-06-02T12:30:24.196Z,45.27
2018-06-02T12:32:53.277Z,45.75
2018-06-02T12:35:21.585Z,44.13
2018-06-02T12:37:50.640Z,46.15
2018-06-02T12:40:18.946Z,43.24
2018-06-02T12:42:48.039Z,41.33
2018-06-02T12:45:17.249Z,42.38
2018-06-02T12:47:46.317Z,42.07
2018-06-02T12:50:14.587Z,42.57
2018-06-02T12:52:42.908Z,41.87
2018-06-02T12:55:11.210Z,43.52
2018-06-02T12:57:39.544Z,45.08
2018-06-02T13:00:07.846Z,42.22
2018-06-02T13:02:36.151Z,42.79
2018-06-02T13:05:04.502Z,42.83
2018-06-02T13:07:32.807Z,43.90
2018-06-02T13:10:01.962Z,44.23
2018-06-02T13:12:30.314Z,45.10
2018-06-02T13:14:59.363Z,47.15
2018-06-02T13:17:28.426Z,47.90
2018-06-02T13:19:56.726Z,47.22
2018-06-02T13:22:25.032Z,49.81
2018-06-02T13:24:53.338Z,47.88
2018-06-02T13:27:23.331Z,42.88
2018-06-02T13:29:51.698Z,43.22
2018-06-02T13:32:19.973Z,42.86
2018-06-02T13:34:48.299Z,43.69
2018-06-02T13:37:16.618Z,42.09
2018-06-02T13:39:44.934Z,43.22
2018-06-02T13:42:14.013Z,44.68
2018-06-02T13:44:42.287Z,41.33
2018-06-02T13:47:10.583Z,41.69
2018-06-02T13:49:39.671Z,43.42
2018-06-02T13:52:08.754Z,42.48
2018-06-02T13:54:37.106Z,39.34
2018-06-02T13:57:06.185Z,41.66
2018-06-02T13:59:34.488Z,43.10
2018-06-02T14:02:02.789Z,44.87
2018-06-02T14:04:31.081Z,41.27
2018-06-02T14:06:59.378Z,40.48
2018-06-02T14:09:27.678Z,40.82
2018-06-02T14:11:55.978Z,41.46
2018-06-02T14:14:24.236Z,44.24
2018-06-02T14:16:52.528Z,44.40
2018-06-02T14:19:21.518Z,42.92
2018-06-02T14:21:49.807Z,39.24
2018-06-02T14:24:18.141Z,39.49
2018-06-02T14:26:46.446Z,40.25
2018-06-02T14:29:14.757Z,38.89
2018-06-02T14:31:43.065Z,41.56
2018-06-02T14:34:11.369Z,42.91
2018-06-02T14:36:39.682Z,44.12
2018-06-02T14:39:08.004Z,43.00
2018-06-02T14:41:36.294Z,42.62
2018-06-02T14:44:04.567Z,41.86
2018-06-02T14:46:32.863Z,40.02
2018-06-02T14:49:01.149Z,38.15
2018-06-02T14:51:29.413Z,39.33
2018-06-02T14:53:57.715Z,42.72
2018-06-02T14:56:26.773Z,44.96
2018-06-02T14:58:55.050Z,45.64
2018-06-02T15:01:23.384Z,45.19
2018-06-02T15:03:51.765Z,42.45
2018-06-02T15:06:19.983Z,38.70
2018-06-02T15:08:48.321Z,38.80
2018-06-02T15:11:16.670Z,39.75
2018-06-02T15:13:44.887Z,39.52
2018-06-02T15:16:13.152Z,37.92
2018-06-02T15:18:41.423Z,37.41
2018-06-02T15:21:09.730Z,35.27
2018-06-02T15:23:38.005Z,41.09
2018-06-02T15:26:06.318Z,42.97
2018-06-02T15:28:34.642Z,44.28
2018-06-02T15:31:02.946Z,41.51
2018-06-02T15:33:31.238Z,38.54
2018-06-02T15:36:00.279Z,38.19
2018-06-02T15:38:28.622Z,37.14
2018-06-02T15:40:57.686Z,36.20
2018-06-02T15:43:25.972Z,39.53
2018-06-02T15:45:54.271Z,39.53
2018-06-02T15:48:23.340Z,37.67
2018-06-02T15:50:51.609Z,39.35
2018-06-02T15:53:19.888Z,39.27
2018-06-02T15:55:48.822Z,43.23
2018-06-02T15:58:17.900Z,43.85
2018-06-02T16:00:46.165Z,43.95
2018-06-02T16:03:14.438Z,46.18
2018-06-02T16:05:42.715Z,48.14
2018-06-02T16:08:10.956Z,49.38
2018-06-02T16:10:39.209Z,50.75
2018-06-02T16:13:07.461Z,51.52
2018-06-02T16:15:36.489Z,52.28
2018-06-02T16:18:06.221Z,53.59
2018-06-02T16:20:34.569Z,51.94
2018-06-02T16:23:02.892Z,45.44
2018-06-02T16:25:31.228Z,41.99
2018-06-02T16:27:59.477Z,42.50
2018-06-02T16:30:28.545Z,43.19
2018-06-02T16:32:59.595Z,41.26
2018-06-02T16:35:28.741Z,41.16
2018-06-02T16:37:57.051Z,40.63
2018-06-02T16:40:25.392Z,39.75
2018-06-02T16:42:53.709Z,41.76
2018-06-02T16:45:22.034Z,42.93
2018-06-02T16:47:50.350Z,40.90
2018-06-02T16:50:18.697Z,41.97
2018-06-02T16:52:47.053Z,41.04
2018-06-02T16:55:16.165Z,42.58
2018-06-02T16:57:44.519Z,41.89
2018-06-02T17:00:13.614Z,40.71
2018-06-02T17:02:42.696Z,39.96
2018-06-02T17:05:11.030Z,39.98
2018-06-02T17:07:39.457Z,38.44
2018-06-02T17:10:07.812Z,37.97
2018-06-02T17:12:37.062Z,38.08
2018-06-02T17:15:06.882Z,38.67
2018-06-02T17:17:35.137Z,38.42
2018-06-02T17:20:04.223Z,39.82
2018-06-02T17:22:32.416Z,36.61
2018-06-02T17:25:00.670Z,39.37
2018-06-02T17:27:29.698Z,36.99
2018-06-02T17:29:57.942Z,38.43
2018-06-02T17:32:26.968Z,37.54
2018-06-02T17:34:55.470Z,38.30
2018-06-02T17:37:23.722Z,45.24
2018-06-02T17:39:51.974Z,47.31
2018-06-02T17:42:20.993Z,49.13
2018-06-02T17:44:49.241Z,51.07
2018-06-02T17:47:18.260Z,50.95
2018-06-02T17:49:46.509Z,52.39
2018-06-02T17:52:15.534Z,53.87
2018-06-02T17:54:43.786Z,54.62
2018-06-02T17:57:12.211Z,53.69
2018-06-02T17:59:40.525Z,54.04
2018-06-02T18:02:09.814Z,55.17
2018-06-02T18:04:38.170Z,58.42
2018-06-02T18:07:06.561Z,57.18
2018-06-02T18:09:35.755Z,57.15
2018-06-02T18:12:04.074Z,57.80
2018-06-02T18:14:32.400Z,58.79
2018-06-02T18:17:00.770Z,59.02
2018-06-02T18:19:29.166Z,58.15
2018-06-02T18:21:57.483Z,58.30
2018-06-02T18:24:25.812Z,58.87
2018-06-02T18:26:54.069Z,59.60
2018-06-02T18:29:22.384Z,58.96
2018-06-02T18:31:50.705Z,58.96
2018-06-02T18:34:19.078Z,58.50
2018-06-02T18:36:47.397Z,58.58
2018-06-02T18:39:16.636Z,59.30
2018-06-02T18:41:44.925Z,60.39
2018-06-02T18:44:13.278Z,59.96
2018-06-02T18:46:42.380Z,61.25
2018-06-02T18:49:11.545Z,62.11
2018-06-02T18:51:39.895Z,62.21
2018-06-02T18:54:08.209Z,62.18
2018-06-02T18:56:36.536Z,62.47
2018-06-02T18:59:04.883Z,62.27
2018-06-02T19:01:33.287Z,62.01
2018-06-02T19:04:01.582Z,62.25
2018-06-02T19:06:29.975Z,62.61
2018-06-02T19:08:58.282Z,63.60
2018-06-02T19:11:26.587Z,62.62
2018-06-02T19:13:54.882Z,63.03
2018-06-02T19:16:23.191Z,63.71
2018-06-02T19:18:52.266Z,63.75
2018-06-02T19:21:20.616Z,64.15
2018-06-02T19:23:48.935Z,64.16
2018-06-02T19:26:17.258Z,64.55
2018-06-02T19:28:46.353Z,64.15
2018-06-02T19:31:15.506Z,64.11
2018-06-02T19:33:43.827Z,63.94
2018-06-02T19:36:12.923Z,64.06
2018-06-02T19:38:42.940Z,63.26
2018-06-02T19:41:11.944Z,64.38
2018-06-02T19:43:40.509Z,63.92
2018-06-02T19:46:09.530Z,64.74
2018-06-02T19:48:37.781Z,64.78
2018-06-02T19:51:06.802Z,64.91
2018-06-02T19:53:35.060Z,63.57
2018-06-02T19:56:03.308Z,63.51
2018-06-02T19:58:31.566Z,63.91
2018-06-02T20:00:59.812Z,64.65
2018-06-02T20:03:28.123Z,64.43
2018-06-02T20:05:56.391Z,65.10
2018-06-02T20:08:24.661Z,65.09
2018-06-02T20:10:52.912Z,64.89
2018-06-02T20:13:22.321Z,65.30
2018-06-02T20:15:50.640Z,65.84
2018-06-02T20:18:19.701Z,65.62
2018-06-02T20:20:47.945Z,65.68
2018-06-02T20:23:16.208Z,66.05
2018-06-02T20:25:45.221Z,65.76
2018-06-02T20:28:13.469Z,66.45
2018-06-02T20:30:42.501Z,66.86
2018-06-02T20:33:10.752Z,66.55
2018-06-02T20:35:39.028Z,67.03
2018-06-02T20:38:07.276Z,67.12
2018-06-02T20:40:35.534Z,67.74
2018-06-02T20:43:03.785Z,67.52
2018-06-02T20:45:32.042Z,67.64
2018-06-02T20:48:00.296Z,68.38
2018-06-02T20:50:29.317Z,68.35
2018-06-02T20:52:57.565Z,69.07
2018-06-02T20:55:26.605Z,68.77
2018-06-02T20:57:54.990Z,68.97
2018-06-02T21:00:23.243Z,69.28
2018-06-02T21:02:51.488Z,69.58
2018-06-02T21:05:20.510Z,69.80
2018-06-02T21:07:48.792Z,69.76
2018-06-02T21:10:17.017Z,69.66
2018-06-02T21:12:46.029Z,70.11
2018-06-02T21:15:14.289Z,70.26
2018-06-02T21:17:43.304Z,70.40
2018-06-02T21:20:11.565Z,70.65
2018-06-02T21:22:40.601Z,70.59
2018-06-02T21:25:08.842Z,71.44
2018-06-02T21:27:37.102Z,70.26
2018-06-02T21:30:06.114Z,70.08
2018-06-02T21:32:34.367Z,69.79
2018-06-02T21:35:02.669Z,69.20
2018-06-02T21:37:30.922Z,68.88
2018-06-02T21:39:59.934Z,68.80
2018-06-02T21:42:28.217Z,69.18
2018-06-02T21:44:56.481Z,70.05
2018-06-02T21:47:25.500Z,69.20
2018-06-02T21:49:54.689Z,70.35
2018-06-02T21:52:22.985Z,68.04
2018-06-02T21:54:51.962Z,67.13
2018-06-02T21:57:20.220Z,68.55
2018-06-02T21:59:49.236Z,70.21
2018-06-02T22:02:17.489Z,70.36
2018-06-02T22:04:45.740Z,69.82
2018-06-02T22:07:13.989Z,70.30
2018-06-02T22:09:42.605Z,70.20
2018-06-02T22:12:10.849Z,70.45
2018-06-02T22:14:39.128Z,70.73
2018-06-02T22:17:07.378Z,71.78
2018-06-02T22:19:35.630Z,71.85
2018-06-02T22:22:03.879Z,72.42
2018-06-02T22:24:32.136Z,72.66
2018-06-02T22:27:00.373Z,73.43
2018-06-02T22:29:28.634Z,74.05
2018-06-02T22:31:56.885Z,74.78
2018-06-02T22:34:25.906Z,75.13
2018-06-02T22:36:54.150Z,76.16
2018-06-02T22:39:22.405Z,77.46
2018-06-02T22:41:50.657Z,77.46
2018-06-02T22:44:18.915Z,77.59
2018-06-02T22:46:47.159Z,78.18
2018-06-02T22:49:16.182Z,78.04
2018-06-02T22:51:57.365Z,78.04
2018-06-02T22:54:26.480Z,78.08
2018-06-02T22:56:54.833Z,77.09
2018-06-02T22:59:23.179Z,77.38
2018-06-02T23:01:52.200Z,77.71
2018-06-02T23:04:20.448Z,77.35
2018-06-02T23:06:49.470Z,78.00
2018-06-02T23:09:17.723Z,78.25
2018-06-02T23:11:48.441Z,78.08
2018-06-02T23:14:16.682Z,78.85
2018-06-02T23:16:44.933Z,79.20
2018-06-02T23:19:13.181Z,79.70
2018-06-02T23:21:42.201Z,79.60
2018-06-02T23:24:10.451Z,80.83
2018-06-02T23:26:39.476Z,80.89
2018-06-02T23:29:07.724Z,81.15
2018-06-02T23:31:35.989Z,81.34
2018-06-02T23:34:05.009Z,81.21
2018-06-02T23:36:33.262Z,81.81
2018-06-02T23:39:02.280Z,81.75
2018-06-02T23:41:30.533Z,82.08
2018-06-02T23:43:59.558Z,82.13
2018-06-02T23:46:27.808Z,81.87
2018-06-02T23:48:56.053Z,82.18
2018-06-02T23:51:24.315Z,82.63
2018-06-02T23:53:52.567Z,82.69
2018-06-02T23:56:20.830Z,82.50
2018-06-02T23:58:49.085Z,82.62
